Terminal Aerodrome Forecast
Issued by NWS

Home | Current Version | Previous Version | Graphics & Text | Print | Product List | Glossary On
Versions: 1 2 3 4 5 6 7 8 9 10 11 12 13 14 15 16 17
000
FTUS43 KBIS 011720
TAFJMS
TAF
KJMS 011720Z 0118/0218 15008KT P6SM SCT120
     FM012100 19010KT P6SM SCT090
     FM020300 23008KT P6SM SKC
     FM020900 33010KT P6SM FEW035 SCT070=

USA.gov is the U.S. government's official web portal to all federal, state and local government web resources and services.